createdAt,value
2019-05-07T00:00:45.654Z,96.70
2019-05-07T00:03:16.328Z,96.50
2019-05-07T00:05:46.078Z,96.50
2019-05-07T00:08:15.763Z,96.60
2019-05-07T00:10:45.511Z,96.80
2019-05-07T00:13:15.217Z,96.90
2019-05-07T00:15:44.997Z,96.90
2019-05-07T00:18:14.688Z,97.10
2019-05-07T00:20:44.290Z,97.00
2019-05-07T00:23:13.884Z,96.10
2019-05-07T00:25:43.496Z,96.00
2019-05-07T00:28:13.151Z,96.20
2019-05-07T00:30:42.754Z,96.60
2019-05-07T00:33:13.187Z,95.60
2019-05-07T00:35:50.322Z,95.40
2019-05-07T00:38:22.419Z,93.40
2019-05-07T00:40:59.638Z,96.10
2019-05-07T00:43:32.269Z,96.60
2019-05-07T00:46:03.588Z,96.40
2019-05-07T00:48:33.140Z,97.00
2019-05-07T00:51:22.481Z,97.00
2019-05-07T00:53:52.136Z,97.20
2019-05-07T00:56:22.847Z,97.20
2019-05-07T00:58:53.541Z,97.00
2019-05-07T01:01:23.255Z,96.60
2019-05-07T01:03:53.512Z,95.80
2019-05-07T01:06:26.374Z,95.90
2019-05-07T01:08:54.655Z,96.80
2019-05-07T01:11:24.247Z,97.20
2019-05-07T01:13:53.871Z,97.20
2019-05-07T01:16:23.498Z,97.50
2019-05-07T01:18:53.778Z,97.00
2019-05-07T01:21:23.496Z,97.40
2019-05-07T01:23:53.168Z,97.60
2019-05-07T01:26:23.780Z,97.70
2019-05-07T01:28:59.089Z,97.80
2019-05-07T01:31:32.894Z,97.60
2019-05-07T01:34:04.303Z,97.70
2019-05-07T01:36:34.043Z,97.70
2019-05-07T01:39:04.696Z,97.50
2019-05-07T01:41:34.489Z,96.50
2019-05-07T01:44:04.293Z,96.20
2019-05-07T01:46:33.846Z,96.60
2019-05-07T01:49:03.532Z,96.60
2019-05-07T01:51:33.180Z,97.00
2019-05-07T01:54:03.020Z,97.60
2019-05-07T01:56:33.216Z,97.70
2019-05-07T01:59:02.965Z,97.90
2019-05-07T02:01:33.156Z,97.90
2019-05-07T02:04:08.088Z,97.60
2019-05-07T02:06:39.281Z,97.20
2019-05-07T02:09:12.851Z,94.60
2019-05-07T02:11:43.534Z,91.90
2019-05-07T02:14:13.592Z,94.70
2019-05-07T02:16:43.462Z,96.20
2019-05-07T02:19:13.147Z,96.30
2019-05-07T02:21:42.761Z,96.80
2019-05-07T02:24:12.610Z,96.70
2019-05-07T02:29:12.097Z,96.70
2019-05-07T02:31:43.831Z,96.80
2019-05-07T02:34:14.138Z,96.70
2019-05-07T02:36:44.096Z,96.40
2019-05-07T02:39:33.070Z,96.40
2019-05-07T02:42:03.678Z,96.00
2019-05-07T02:44:34.500Z,96.20
2019-05-07T02:47:17.870Z,96.40
2019-05-07T02:49:53.616Z,95.80
2019-05-07T02:52:43.438Z,96.50
2019-05-07T02:55:13.591Z,95.90
2019-05-07T02:57:43.592Z,96.90
2019-05-07T03:00:14.632Z,97.00
2019-05-07T03:02:44.844Z,96.90
2019-05-07T03:05:14.533Z,94.20
2019-05-07T03:07:44.239Z,95.60
2019-05-07T03:10:14.087Z,95.60
2019-05-07T03:12:43.803Z,96.30
2019-05-07T03:15:13.612Z,96.30
2019-05-07T03:17:43.280Z,96.20
2019-05-07T03:20:14.579Z,95.20
2019-05-07T03:22:44.589Z,96.30
2019-05-07T03:25:15.196Z,96.20
2019-05-07T03:27:45.745Z,96.20
2019-05-07T03:30:25.542Z,96.50
2019-05-07T03:32:56.209Z,96.40
2019-05-07T03:35:37.878Z,96.10
2019-05-07T03:38:09.572Z,96.30
2019-05-07T03:40:39.315Z,96.40
2019-05-07T03:43:09.055Z,96.60
2019-05-07T03:45:42.963Z,96.40
2019-05-07T03:48:16.117Z,96.10
2019-05-07T03:50:45.750Z,96.60
2019-05-07T03:53:15.429Z,97.10
2019-05-07T03:55:45.217Z,94.40
2019-05-07T03:58:15.132Z,96.70
2019-05-07T04:00:44.658Z,96.10
2019-05-07T04:03:19.037Z,96.30
2019-05-07T04:05:47.114Z,96.90
2019-05-07T04:08:17.708Z,97.20
2019-05-07T04:10:47.495Z,97.20
2019-05-07T04:13:18.081Z,97.30
2019-05-07T04:15:47.775Z,96.60
2019-05-07T04:18:18.943Z,96.90
2019-05-07T04:20:48.569Z,97.20
2019-05-07T04:23:18.261Z,96.00
2019-05-07T04:25:55.040Z,96.00
2019-05-07T04:28:28.884Z,95.30
2019-05-07T04:31:02.541Z,93.90
2019-05-07T04:33:33.343Z,95.10
2019-05-07T04:36:04.905Z,96.00
2019-05-07T04:38:35.422Z,96.00
2019-05-07T04:41:05.185Z,95.00
2019-05-07T04:43:34.942Z,95.30
2019-05-07T04:46:04.632Z,95.70
2019-05-07T04:48:34.418Z,96.20
2019-05-07T04:51:05.734Z,96.50
2019-05-07T04:53:35.472Z,95.10
2019-05-07T04:56:05.237Z,95.70
2019-05-07T04:58:34.853Z,96.50
2019-05-07T05:01:07.755Z,96.70
2019-05-07T05:03:39.246Z,96.50
2019-05-07T05:06:13.704Z,95.90
2019-05-07T05:08:43.698Z,95.80
2019-05-07T05:11:13.613Z,96.50
2019-05-07T05:13:44.409Z,96.60
2019-05-07T05:16:24.923Z,96.60
2019-05-07T05:18:54.855Z,95.10
2019-05-07T05:21:37.907Z,96.10
2019-05-07T05:24:15.047Z,96.50
2019-05-07T05:26:44.768Z,96.60
2019-05-07T05:29:14.491Z,96.60
2019-05-07T05:31:44.248Z,94.60
2019-05-07T05:34:13.885Z,96.30
2019-05-07T05:36:44.724Z,96.40
2019-05-07T05:39:14.431Z,96.70
2019-05-07T05:41:45.729Z,94.30
2019-05-07T05:44:19.731Z,94.70
2019-05-07T05:46:52.496Z,95.80
2019-05-07T05:49:22.918Z,95.60
2019-05-07T05:52:06.607Z,95.60
2019-05-07T05:54:44.216Z,95.10
2019-05-07T05:57:19.528Z,96.10
2019-05-07T05:59:58.976Z,95.40
2019-05-07T06:02:35.567Z,94.80
2019-05-07T06:05:08.227Z,94.60
2019-05-07T06:07:45.300Z,95.50
2019-05-07T06:10:28.609Z,95.70
2019-05-07T06:13:02.833Z,94.50
2019-05-07T06:15:34.104Z,94.60
2019-05-07T06:18:18.848Z,94.40
2019-05-07T06:20:47.791Z,92.70
2019-05-07T06:23:22.469Z,94.70
2019-05-07T06:25:52.540Z,93.90
2019-05-07T06:28:23.343Z,93.00
2019-05-07T06:30:53.038Z,92.60
2019-05-07T06:33:23.173Z,93.40
2019-05-07T06:35:53.985Z,92.90
2019-05-07T06:38:25.042Z,91.10
2019-05-07T06:41:08.226Z,91.10
2019-05-07T06:43:42.507Z,91.70
2019-05-07T06:46:13.913Z,90.90
2019-05-07T06:48:46.244Z,89.40
2019-05-07T06:51:17.555Z,89.90
2019-05-07T06:53:47.393Z,91.30
2019-05-07T06:56:16.296Z,88.70
2019-05-07T06:58:49.072Z,83.40
2019-05-07T07:01:23.182Z,84.10
2019-05-07T07:04:09.515Z,86.40
2019-05-07T07:06:49.712Z,85.20
2019-05-07T07:09:27.547Z,78.30
2019-05-07T07:12:01.992Z,78.40
2019-05-07T07:14:33.183Z,84.90
2019-05-07T07:17:03.234Z,78.70
2019-05-07T07:19:35.592Z,84.20
2019-05-07T07:22:03.518Z,84.60
2019-05-07T07:24:33.157Z,82.30
2019-05-07T07:27:02.850Z,77.30
2019-05-07T07:29:34.275Z,79.30
2019-05-07T07:32:05.613Z,79.20
2019-05-07T07:34:37.006Z,80.90
2019-05-07T07:37:16.979Z,80.40
2019-05-07T07:39:45.908Z,72.80
2019-05-07T07:42:15.380Z,78.10
2019-05-07T07:44:45.791Z,77.90
2019-05-07T07:47:22.593Z,73.20
2019-05-07T07:49:52.760Z,74.20
2019-05-07T07:52:22.973Z,77.00
2019-05-07T07:54:53.006Z,73.20
2019-05-07T07:57:42.708Z,71.10
2019-05-07T08:00:18.617Z,71.00
2019-05-07T08:02:49.881Z,69.90
2019-05-07T08:05:21.866Z,70.00
2019-05-07T08:07:52.967Z,68.50
2019-05-07T08:10:22.755Z,75.50
2019-05-07T08:12:52.616Z,69.40
2019-05-07T08:15:24.697Z,73.40
2019-05-07T08:17:54.891Z,64.90
2019-05-07T08:20:25.403Z,67.10
2019-05-07T08:22:55.139Z,67.30
2019-05-07T08:25:26.388Z,70.70
2019-05-07T08:27:58.151Z,71.20
2019-05-07T08:30:29.054Z,70.10
2019-05-07T08:33:02.924Z,71.50
2019-05-07T08:35:34.356Z,69.00
2019-05-07T08:38:04.016Z,71.40
2019-05-07T08:40:33.793Z,72.00
2019-05-07T08:43:03.498Z,71.20
2019-05-07T08:45:52.393Z,63.20
2019-05-07T08:48:35.385Z,60.50
2019-05-07T08:51:05.096Z,71.90
2019-05-07T08:53:34.704Z,66.50
2019-05-07T08:56:04.516Z,66.20
2019-05-07T08:58:34.180Z,66.30
2019-05-07T09:01:03.901Z,69.30
2019-05-07T09:03:43.322Z,61.80
2019-05-07T09:06:14.613Z,67.80
2019-05-07T09:08:44.328Z,68.30
2019-05-07T09:11:14.034Z,58.40
2019-05-07T09:13:43.796Z,56.10
2019-05-07T09:16:13.418Z,63.80
2019-05-07T09:18:43.145Z,68.00
2019-05-07T09:21:12.880Z,63.50
2019-05-07T09:23:43.627Z,63.90
2019-05-07T09:26:14.997Z,61.70
2019-05-07T09:28:47.777Z,69.60
2019-05-07T09:31:36.768Z,63.00
2019-05-07T09:34:06.392Z,70.70
2019-05-07T09:36:43.364Z,63.70
2019-05-07T09:39:13.229Z,56.50
2019-05-07T09:41:42.090Z,51.80
2019-05-07T09:44:12.033Z,58.00
2019-05-07T09:46:43.016Z,58.50
2019-05-07T09:49:13.240Z,61.00
2019-05-07T09:51:42.769Z,59.00
2019-05-07T09:54:12.809Z,61.70
2019-05-07T09:56:42.659Z,56.00
2019-05-07T09:59:12.589Z,57.20
2019-05-07T10:01:42.431Z,54.30
2019-05-07T10:04:11.386Z,62.40
2019-05-07T10:06:42.476Z,54.70
2019-05-07T10:09:14.238Z,60.50
2019-05-07T10:11:45.549Z,56.10
2019-05-07T10:14:15.267Z,57.00
2019-05-07T10:16:52.397Z,61.40
2019-05-07T10:19:23.883Z,55.90
2019-05-07T10:21:53.731Z,55.60
2019-05-07T10:24:22.636Z,61.00
2019-05-07T10:26:53.156Z,56.70
2019-05-07T10:29:23.010Z,61.40
2019-05-07T10:31:52.887Z,54.30
2019-05-07T10:34:22.884Z,54.60
2019-05-07T10:36:52.621Z,56.60
2019-05-07T10:39:22.056Z,53.30
2019-05-07T10:41:51.784Z,53.10
2019-05-07T10:44:23.233Z,61.50
2019-05-07T10:47:12.126Z,56.40
2019-05-07T10:49:45.959Z,52.60
2019-05-07T10:52:15.670Z,55.00
2019-05-07T10:54:56.808Z,55.70
2019-05-07T10:57:15.763Z,53.70
2019-05-07T10:59:45.383Z,49.20
2019-05-07T11:02:16.709Z,49.50
2019-05-07T11:07:18.321Z,54.10
2019-05-07T11:09:48.017Z,57.30
2019-05-07T11:12:16.987Z,52.50
2019-05-07T11:14:46.747Z,45.20
2019-05-07T11:17:22.352Z,47.80
2019-05-07T11:19:53.162Z,55.90
2019-05-07T11:22:22.932Z,61.80
2019-05-07T11:24:52.222Z,62.50
2019-05-07T11:27:22.535Z,53.90
2019-05-07T11:29:52.350Z,49.50
2019-05-07T11:32:21.633Z,43.60
2019-05-07T11:34:52.813Z,44.60
2019-05-07T11:37:22.623Z,41.70
2019-05-07T11:39:52.324Z,49.30
2019-05-07T11:42:23.805Z,36.40
2019-05-07T11:44:54.998Z,48.00
2019-05-07T11:47:26.573Z,50.80
2019-05-07T11:50:15.640Z,49.20
2019-05-07T11:53:01.910Z,55.30
2019-05-07T11:55:31.730Z,52.80
2019-05-07T11:58:02.431Z,48.50
2019-05-07T12:00:38.335Z,49.60
2019-05-07T12:03:08.198Z,55.10
2019-05-07T12:05:37.847Z,51.30
2019-05-07T12:08:08.682Z,43.80
2019-05-07T12:10:38.337Z,49.00
2019-05-07T12:13:07.348Z,50.00
2019-05-07T12:18:08.887Z,49.70
2019-05-07T12:20:38.577Z,53.90
2019-05-07T12:23:07.430Z,39.50
2019-05-07T12:25:36.905Z,39.60
2019-05-07T12:28:05.880Z,44.00
2019-05-07T12:30:53.343Z,39.50
2019-05-07T12:33:24.663Z,43.10
2019-05-07T12:35:54.371Z,43.60
2019-05-07T12:38:23.291Z,43.90
2019-05-07T12:40:52.759Z,45.60
2019-05-07T12:43:21.654Z,51.20
2019-05-07T12:45:52.463Z,50.50
2019-05-07T12:48:22.327Z,46.90
2019-05-07T12:50:53.638Z,44.30
2019-05-07T12:53:31.878Z,41.30
2019-05-07T12:56:03.325Z,47.30
2019-05-07T12:58:33.092Z,42.50
2019-05-07T13:01:06.476Z,42.60
2019-05-07T13:03:37.708Z,43.10
2019-05-07T13:06:07.462Z,47.50
2019-05-07T13:08:37.874Z,44.30
2019-05-07T13:11:07.442Z,50.70
2019-05-07T13:13:37.309Z,50.40
2019-05-07T13:16:07.088Z,49.80
2019-05-07T13:18:35.950Z,45.80
2019-05-07T13:21:05.560Z,41.70
2019-05-07T13:23:34.450Z,50.20
2019-05-07T13:26:04.047Z,55.10
2019-05-07T13:28:33.915Z,57.60
2019-05-07T13:31:03.667Z,49.30
2019-05-07T13:33:35.546Z,46.80
2019-05-07T13:36:05.438Z,46.30
2019-05-07T13:38:55.153Z,44.40
2019-05-07T13:41:44.220Z,48.20
2019-05-07T13:44:15.627Z,41.30
2019-05-07T13:46:45.878Z,40.60
2019-05-07T13:49:15.580Z,38.90
2019-05-07T13:51:44.654Z,46.40
2019-05-07T13:54:14.391Z,42.20
2019-05-07T13:56:44.106Z,38.70
2019-05-07T13:59:13.794Z,42.00
2019-05-07T14:01:53.208Z,46.40
2019-05-07T14:04:58.731Z,47.70
2019-05-07T14:07:32.128Z,52.90
2019-05-07T14:10:02.363Z,45.10
2019-05-07T14:12:33.826Z,40.10
2019-05-07T14:15:06.373Z,41.60
2019-05-07T14:17:36.146Z,40.70
2019-05-07T14:20:06.869Z,50.00
2019-05-07T14:22:36.776Z,51.90
2019-05-07T14:25:07.420Z,45.70
2019-05-07T14:27:38.797Z,48.70
2019-05-07T14:30:09.582Z,50.50
2019-05-07T14:32:42.039Z,56.10
2019-05-07T14:35:19.732Z,59.60
2019-05-07T14:37:52.349Z,47.60
2019-05-07T14:40:24.906Z,49.20
2019-05-07T14:43:05.750Z,39.70
2019-05-07T14:45:35.508Z,26.30
2019-05-07T14:48:05.261Z,28.30
2019-05-07T14:50:35.034Z,21.80
2019-05-07T14:53:04.879Z,29.30
2019-05-07T14:55:34.671Z,25.80
2019-05-07T14:58:04.536Z,21.60
2019-05-07T15:00:35.291Z,26.20
2019-05-07T15:03:05.189Z,22.10
2019-05-07T15:05:34.947Z,26.40
2019-05-07T15:08:10.581Z,26.10
2019-05-07T15:10:38.988Z,22.20
2019-05-07T15:13:08.784Z,21.60
2019-05-07T15:15:38.505Z,26.80
2019-05-07T15:18:18.731Z,25.00
2019-05-07T15:20:48.588Z,21.40
2019-05-07T15:23:20.035Z,25.40
2019-05-07T15:25:51.604Z,22.10
2019-05-07T15:28:22.802Z,26.90
2019-05-07T15:30:56.779Z,22.70
2019-05-07T15:33:28.333Z,23.60
2019-05-07T15:35:59.583Z,27.30
2019-05-07T15:38:29.359Z,23.10
2019-05-07T15:40:59.034Z,22.30
2019-05-07T15:43:29.724Z,23.70
2019-05-07T15:46:01.849Z,21.40
2019-05-07T15:48:32.683Z,28.70
2019-05-07T15:51:02.365Z,27.10
2019-05-07T15:53:51.902Z,28.10
2019-05-07T15:56:21.781Z,24.10
2019-05-07T15:58:51.791Z,17.00
2019-05-07T16:01:22.233Z,22.50
2019-05-07T16:03:54.988Z,26.10
2019-05-07T16:06:23.492Z,29.90
2019-05-07T16:08:54.792Z,22.80
2019-05-07T16:11:24.566Z,24.70
2019-05-07T16:14:07.231Z,23.90
2019-05-07T16:16:44.119Z,23.80
2019-05-07T16:19:15.420Z,26.40
2019-05-07T16:21:45.250Z,29.20
2019-05-07T16:24:14.850Z,26.20
2019-05-07T16:26:44.508Z,23.40
2019-05-07T16:29:14.275Z,26.30
2019-05-07T16:31:44.464Z,30.00
2019-05-07T16:34:17.114Z,29.40
2019-05-07T16:36:46.794Z,33.80
2019-05-07T16:39:16.335Z,29.50
2019-05-07T16:41:46.020Z,27.80
2019-05-07T16:44:15.645Z,29.10
2019-05-07T16:46:45.354Z,29.80
2019-05-07T16:49:15.094Z,26.30
2019-05-07T16:51:44.915Z,29.00
2019-05-07T16:54:15.564Z,31.50
2019-05-07T16:57:03.203Z,33.30
2019-05-07T16:59:33.131Z,30.40
2019-05-07T17:02:04.469Z,31.60
2019-05-07T17:04:34.661Z,33.00
2019-05-07T17:07:06.066Z,35.30
2019-05-07T17:09:35.752Z,38.60
2019-05-07T17:12:08.648Z,40.40
2019-05-07T17:14:40.014Z,37.20
2019-05-07T17:17:11.971Z,41.00
2019-05-07T17:19:42.539Z,42.70
2019-05-07T17:22:12.342Z,46.80
2019-05-07T17:24:42.520Z,50.30
2019-05-07T17:27:12.274Z,51.40
2019-05-07T17:29:44.877Z,49.10
2019-05-07T17:32:14.534Z,56.60
2019-05-07T17:34:43.347Z,57.50
2019-05-07T17:37:12.964Z,57.80
2019-05-07T17:39:42.599Z,56.60
2019-05-07T17:42:13.442Z,50.10
2019-05-07T17:44:43.127Z,53.80
2019-05-07T17:47:14.983Z,58.20
2019-05-07T17:49:46.334Z,57.50
2019-05-07T17:52:15.978Z,60.30
2019-05-07T17:54:44.898Z,65.20
2019-05-07T17:57:15.905Z,62.90
2019-05-07T17:59:45.845Z,62.80
2019-05-07T18:02:24.959Z,61.80
2019-05-07T18:04:54.752Z,63.70
2019-05-07T18:07:24.431Z,64.90
2019-05-07T18:09:55.732Z,59.90
2019-05-07T18:12:24.752Z,71.80
2019-05-07T18:14:54.922Z,70.70
2019-05-07T18:17:28.832Z,67.40
2019-05-07T18:20:04.460Z,72.90
2019-05-07T18:22:40.526Z,74.80
2019-05-07T18:25:12.461Z,73.70
2019-05-07T18:27:42.401Z,73.70
2019-05-07T18:30:12.856Z,76.10
2019-05-07T18:32:44.347Z,77.90
2019-05-07T18:35:14.118Z,78.10
2019-05-07T18:37:53.848Z,79.30
2019-05-07T18:40:30.183Z,74.10
2019-05-07T18:43:06.226Z,77.80
2019-05-07T18:45:37.567Z,78.90
2019-05-07T18:48:09.055Z,72.80
2019-05-07T18:50:45.502Z,80.50
2019-05-07T18:53:17.851Z,83.90
2019-05-07T18:55:46.767Z,84.30
2019-05-07T18:58:22.397Z,78.90
2019-05-07T19:00:51.954Z,82.60
2019-05-07T19:03:21.960Z,80.60
2019-05-07T19:05:56.099Z,80.40
2019-05-07T19:08:27.146Z,83.30
2019-05-07T19:11:05.747Z,81.00
2019-05-07T19:13:38.708Z,82.90
2019-05-07T19:16:08.579Z,78.40
2019-05-07T19:18:37.613Z,80.50
2019-05-07T19:21:07.833Z,76.60
2019-05-07T19:23:52.879Z,82.10
2019-05-07T19:26:13.050Z,79.50
2019-05-07T19:28:45.174Z,80.70
2019-05-07T19:31:17.542Z,82.10
2019-05-07T19:33:55.006Z,81.90
2019-05-07T19:36:36.048Z,79.20
2019-05-07T19:39:15.621Z,80.50
2019-05-07T19:41:47.277Z,82.30
2019-05-07T19:44:16.256Z,85.80
2019-05-07T19:46:45.951Z,79.60
2019-05-07T19:49:17.236Z,85.00
2019-05-07T19:51:48.561Z,81.30
2019-05-07T19:54:19.948Z,80.90
2019-05-07T19:56:51.902Z,80.50
2019-05-07T19:59:22.438Z,85.60
2019-05-07T20:01:53.097Z,82.30
2019-05-07T20:04:22.817Z,83.00
2019-05-07T20:06:55.385Z,82.90
2019-05-07T20:09:26.857Z,75.30
2019-05-07T20:11:56.527Z,81.30
2019-05-07T20:14:30.077Z,86.40
2019-05-07T20:17:01.535Z,86.50
2019-05-07T20:19:32.319Z,85.60
2019-05-07T20:22:03.737Z,84.70
2019-05-07T20:24:33.210Z,87.50
2019-05-07T20:27:04.528Z,89.20
2019-05-07T20:29:34.446Z,84.40
2019-05-07T20:32:04.590Z,88.30
2019-05-07T20:34:38.622Z,86.80
2019-05-07T20:37:08.521Z,86.60
2019-05-07T20:39:38.484Z,90.20
2019-05-07T20:42:09.084Z,90.50
2019-05-07T20:44:38.698Z,90.10
2019-05-07T20:47:08.620Z,89.10
2019-05-07T20:49:43.065Z,90.50
2019-05-07T20:52:18.358Z,90.30
2019-05-07T20:54:55.541Z,90.00
2019-05-07T20:57:26.943Z,90.50
2019-05-07T20:59:57.940Z,90.30
2019-05-07T21:02:42.422Z,89.50
2019-05-07T21:05:03.489Z,88.60
2019-05-07T21:07:33.304Z,88.90
2019-05-07T21:10:03.555Z,90.40
2019-05-07T21:12:35.307Z,90.30
2019-05-07T21:15:12.410Z,90.80
2019-05-07T21:17:42.852Z,89.00
2019-05-07T21:20:12.787Z,89.90
2019-05-07T21:22:42.924Z,90.70
2019-05-07T21:25:12.633Z,89.10
2019-05-07T21:27:43.161Z,91.30
2019-05-07T21:30:17.561Z,89.00
2019-05-07T21:32:46.578Z,91.00
2019-05-07T21:35:15.673Z,90.30
2019-05-07T21:37:45.132Z,91.10
2019-05-07T21:40:14.262Z,91.50
2019-05-07T21:42:45.564Z,91.40
2019-05-07T21:45:15.562Z,92.20
2019-05-07T21:47:45.329Z,91.30
2019-05-07T21:50:15.233Z,91.30
2019-05-07T21:52:45.726Z,91.60
2019-05-07T21:55:17.327Z,92.00
2019-05-07T21:58:04.403Z,92.40
2019-05-07T22:00:35.857Z,91.90
2019-05-07T22:03:09.007Z,92.10
2019-05-07T22:05:44.374Z,92.10
2019-05-07T22:08:22.643Z,91.50
2019-05-07T22:10:52.529Z,91.90
2019-05-07T22:13:22.352Z,91.90
2019-05-07T22:15:55.225Z,91.50
2019-05-07T22:18:26.727Z,91.50
2019-05-07T22:20:59.742Z,91.80
2019-05-07T22:23:32.377Z,92.90
2019-05-07T22:26:16.658Z,92.60
2019-05-07T22:28:35.680Z,92.20
2019-05-07T22:31:12.728Z,93.00
2019-05-07T22:34:02.207Z,93.10
2019-05-07T22:36:32.982Z,93.30
2019-05-07T22:39:08.332Z,92.80
2019-05-07T22:41:39.747Z,92.70
2019-05-07T22:44:12.292Z,93.00
2019-05-07T22:46:43.152Z,93.00
2019-05-07T22:49:13.513Z,93.10
2019-05-07T22:51:43.277Z,93.50
2019-05-07T22:54:12.285Z,93.50
2019-05-07T22:56:58.366Z,93.50
2019-05-07T22:59:29.139Z,93.80
2019-05-07T23:02:02.886Z,94.20
2019-05-07T23:04:32.554Z,94.30
2019-05-07T23:07:02.528Z,93.40
2019-05-07T23:09:31.450Z,93.50
2019-05-07T23:12:04.347Z,93.70
2019-05-07T23:14:37.849Z,94.40
2019-05-07T23:17:07.668Z,93.60
2019-05-07T23:19:37.399Z,93.40
2019-05-07T23:22:07.212Z,93.30
2019-05-07T23:24:38.591Z,94.00
2019-05-07T23:27:08.143Z,93.20
2019-05-07T23:29:37.920Z,93.30
2019-05-07T23:32:07.833Z,93.80
2019-05-07T23:34:39.107Z,94.00
2019-05-07T23:37:11.755Z,94.40
2019-05-07T23:39:43.907Z,94.40
2019-05-07T23:42:19.978Z,94.30
2019-05-07T23:44:49.428Z,93.50
2019-05-07T23:47:19.235Z,94.30
2019-05-07T23:49:49.147Z,94.50
2019-05-07T23:52:18.192Z,94.70
2019-05-07T23:54:54.991Z,94.80
2019-05-07T23:57:24.694Z,94.70
2019-05-07T23:59:54.409Z,95.00
